Time,TemperatureF,DewpointF,PressureIn,WindDirection,WindDirectionDegrees,WindSpeedMPH,WindSpeedGustMPH,Humidity,HourlyPrecipIn,Conditions,Clouds,dailyrainin,SolarRadiationWatts/m^2,SoftwareType,DateUTC
2013-07-24 00:01:00,67.0,28.0,-100.00,ESE,119,0.0,6.0,23,0.00,,,0.00,0.000000,,2013-07-24 06:01:00,
2013-07-24 00:11:00,67.0,28.0,-100.00,ESE,119,0.0,6.0,23,0.00,,,0.00,0.000000,,2013-07-24 06:11:00,
2013-07-24 00:24:00,67.0,28.0,-100.00,ESE,119,0.0,6.0,23,0.00,,,0.00,0.000000,,2013-07-24 06:24:00,
2013-07-24 00:53:00,65.0,28.0,-100.00,NNW,348,0.0,5.0,25,0.00,,,0.00,0.000000,,2013-07-24 06:53:00,
2013-07-24 01:02:00,65.0,28.0,-100.00,NNW,348,0.0,5.0,25,0.00,,,0.00,0.000000,,2013-07-24 07:02:00,
2013-07-24 01:12:00,65.0,28.0,-100.00,NNW,348,0.0,5.0,25,0.00,,,0.00,0.000000,,2013-07-24 07:12:00,
2013-07-24 01:22:00,65.0,28.0,-100.00,NNW,348,0.0,5.0,25,0.00,,,0.00,0.000000,,2013-07-24 07:22:00,
2013-07-24 01:53:00,61.0,28.0,-100.00,East,86,0.0,4.0,28,0.00,,,0.00,0.000000,,2013-07-24 07:53:00,
2013-07-24 02:02:00,61.0,28.0,-100.00,East,86,0.0,4.0,28,0.00,,,0.00,0.000000,,2013-07-24 08:02:00,
2013-07-24 02:12:00,61.0,28.0,-100.00,East,86,0.0,4.0,28,0.00,,,0.00,0.000000,,2013-07-24 08:12:00,
2013-07-24 02:22:00,61.0,28.0,-100.00,East,86,0.0,4.0,28,0.00,,,0.00,0.000000,,2013-07-24 08:22:00,
2013-07-24 02:52:00,58.0,28.0,-100.00,East,81,0.0,0.0,32,0.00,,,0.00,0.000000,,2013-07-24 08:52:00,
2013-07-24 03:02:00,58.0,28.0,-100.00,East,81,0.0,0.0,32,0.00,,,0.00,0.000000,,2013-07-24 09:02:00,
2013-07-24 03:12:00,58.0,28.0,-100.00,East,81,0.0,0.0,32,0.00,,,0.00,0.000000,,2013-07-24 09:12:00,
2013-07-24 03:22:00,58.0,28.0,-100.00,East,81,0.0,0.0,32,0.00,,,0.00,0.000000,,2013-07-24 09:22:00,
2013-07-24 03:53:00,54.0,27.0,-100.00,ESE,118,0.0,2.0,35,0.00,,,0.00,0.000000,,2013-07-24 09:53:00,
2013-07-24 04:02:00,54.0,27.0,-100.00,ESE,118,0.0,2.0,35,0.00,,,0.00,0.000000,,2013-07-24 10:02:00,
2013-07-24 04:12:00,54.0,27.0,-100.00,ESE,118,0.0,2.0,35,0.00,,,0.00,0.000000,,2013-07-24 10:12:00,
2013-07-24 04:22:00,54.0,27.0,-100.00,ESE,118,0.0,2.0,35,0.00,,,0.00,0.000000,,2013-07-24 10:22:00,
2013-07-24 04:53:00,51.0,27.0,-100.00,ESE,107,0.0,3.0,39,0.00,,,0.00,0.000000,,2013-07-24 10:53:00,
2013-07-24 05:02:00,51.0,27.0,-100.00,ESE,107,0.0,3.0,39,0.00,,,0.00,0.000000,,2013-07-24 11:02:00,
2013-07-24 05:11:00,51.0,27.0,-100.00,ESE,107,0.0,3.0,39,0.00,,,0.00,0.000000,,2013-07-24 11:11:00,
2013-07-24 05:22:00,51.0,27.0,-100.00,ESE,107,0.0,3.0,39,0.00,,,0.00,0.000000,,2013-07-24 11:22:00,
2013-07-24 05:52:00,50.0,28.0,-100.00,NW,307,0.0,0.0,43,0.00,,,0.00,0.000000,,2013-07-24 11:52:00,
2013-07-24 06:02:00,50.0,28.0,-100.00,NW,307,0.0,0.0,43,0.00,,,0.00,0.000000,,2013-07-24 12:02:00,
2013-07-24 06:12:00,50.0,28.0,-100.00,NW,307,0.0,0.0,43,0.00,,,0.00,0.000000,,2013-07-24 12:12:00,
2013-07-24 06:22:00,50.0,28.0,-100.00,NW,307,0.0,0.0,43,0.00,,,0.00,0.000000,,2013-07-24 12:22:00,
2013-07-24 06:52:00,49.0,29.0,-100.00,ENE,69,0.0,0.0,45,0.00,,,0.00,0.000000,,2013-07-24 12:52:00,
2013-07-24 07:02:00,49.0,29.0,-100.00,ENE,69,0.0,0.0,45,0.00,,,0.00,0.000000,,2013-07-24 13:02:00,
2013-07-24 07:12:00,49.0,29.0,-100.00,ENE,69,0.0,0.0,45,0.00,,,0.00,0.000000,,2013-07-24 13:12:00,
2013-07-24 07:22:00,49.0,29.0,-100.00,ENE,69,0.0,0.0,45,0.00,,,0.00,0.000000,,2013-07-24 13:22:00,
2013-07-24 07:53:00,49.0,30.0,-100.00,ENE,75,0.0,0.0,48,0.00,,,0.00,16.000000,,2013-07-24 13:53:00,
2013-07-24 08:02:00,49.0,30.0,-100.00,ENE,75,0.0,0.0,48,0.00,,,0.00,16.000000,,2013-07-24 14:02:00,
2013-07-24 08:12:00,49.0,30.0,-100.00,ENE,75,0.0,0.0,48,0.00,,,0.00,16.000000,,2013-07-24 14:12:00,
2013-07-24 08:22:00,49.0,30.0,-100.00,ENE,75,0.0,0.0,48,0.00,,,0.00,16.000000,,2013-07-24 14:22:00,
2013-07-24 08:55:00,50.0,29.0,-100.00,NW,316,0.0,0.0,45,0.00,,,0.00,70.000000,,2013-07-24 14:55:00,
2013-07-24 09:02:00,50.0,29.0,-100.00,NW,316,0.0,0.0,45,0.00,,,0.00,70.000000,,2013-07-24 15:02:00,
2013-07-24 09:12:00,50.0,29.0,-100.00,NW,316,0.0,0.0,45,0.00,,,0.00,70.000000,,2013-07-24 15:12:00,
2013-07-24 09:22:00,50.0,29.0,-100.00,NW,316,0.0,0.0,45,0.00,,,0.00,70.000000,,2013-07-24 15:22:00,
2013-07-24 09:53:00,59.0,31.0,-100.00,WNW,299,0.0,0.0,34,-99.99,,,0.00,223.000000,,2013-07-24 15:53:00,
2013-07-24 10:02:00,59.0,31.0,-100.00,WNW,299,0.0,0.0,34,-99.99,,,0.00,223.000000,,2013-07-24 16:02:00,
2013-07-24 10:12:00,59.0,31.0,-100.00,WNW,299,0.0,0.0,34,-99.99,,,0.00,223.000000,,2013-07-24 16:12:00,
2013-07-24 10:22:00,59.0,31.0,-100.00,WNW,299,0.0,0.0,34,-99.99,,,0.00,223.000000,,2013-07-24 16:22:00,
2013-07-24 10:53:00,70.0,30.0,-100.00,WNW,301,0.0,2.0,23,-99.99,,,-99.99,474.000000,,2013-07-24 16:53:00,
2013-07-24 11:02:00,70.0,30.0,-100.00,WNW,301,0.0,2.0,23,-99.99,,,-99.99,474.000000,,2013-07-24 17:02:00,
2013-07-24 11:12:00,70.0,30.0,-100.00,WNW,301,0.0,2.0,23,-99.99,,,-99.99,474.000000,,2013-07-24 17:12:00,
2013-07-24 11:22:00,70.0,30.0,-100.00,WNW,301,0.0,2.0,23,-99.99,,,-99.99,474.000000,,2013-07-24 17:22:00,
2013-07-24 11:53:00,80.0,30.0,-100.00,WNW,290,1.0,4.0,16,-99.99,,,0.00,712.000000,,2013-07-24 17:53:00,
2013-07-24 12:02:00,80.0,30.0,-100.00,WNW,290,1.0,4.0,16,-99.99,,,0.00,712.000000,,2013-07-24 18:02:00,
2013-07-24 12:12:00,80.0,30.0,-100.00,WNW,290,1.0,4.0,16,-99.99,,,0.00,712.000000,,2013-07-24 18:12:00,
2013-07-24 12:22:00,80.0,30.0,-100.00,WNW,290,1.0,4.0,16,-99.99,,,0.00,712.000000,,2013-07-24 18:22:00,
2013-07-24 12:52:00,86.0,29.0,-100.00,South,176,5.0,6.0,13,0.00,,,0.00,835.000000,,2013-07-24 18:52:00,
2013-07-24 13:02:00,86.0,29.0,-100.00,South,176,5.0,6.0,13,0.00,,,0.00,835.000000,,2013-07-24 19:02:00,
2013-07-24 13:12:00,86.0,29.0,-100.00,South,176,5.0,6.0,13,0.00,,,0.00,835.000000,,2013-07-24 19:12:00,
2013-07-24 13:22:00,86.0,29.0,-100.00,South,176,5.0,6.0,13,0.00,,,0.00,835.000000,,2013-07-24 19:22:00,
2013-07-24 13:53:00,89.0,28.0,-100.00,West,267,4.0,11.0,11,0.00,,,0.00,927.000000,,2013-07-24 19:53:00,
2013-07-24 14:02:00,89.0,28.0,-100.00,West,267,4.0,11.0,11,0.00,,,0.00,927.000000,,2013-07-24 20:02:00,
2013-07-24 14:13:00,89.0,28.0,-100.00,West,267,4.0,11.0,11,0.00,,,0.00,927.000000,,2013-07-24 20:13:00,
2013-07-24 14:22:00,89.0,28.0,-100.00,West,267,4.0,11.0,11,0.00,,,0.00,927.000000,,2013-07-24 20:22:00,
2013-07-24 14:53:00,91.0,22.0,-100.00,WNW,287,6.0,11.0,8,0.00,,,0.00,977.000000,,2013-07-24 20:53:00,
2013-07-24 15:02:00,91.0,22.0,-100.00,WNW,287,6.0,11.0,8,0.00,,,0.00,977.000000,,2013-07-24 21:02:00,
2013-07-24 15:12:00,91.0,22.0,-100.00,WNW,287,6.0,11.0,8,0.00,,,0.00,977.000000,,2013-07-24 21:12:00,
2013-07-24 15:22:00,91.0,22.0,-100.00,WNW,287,6.0,11.0,8,0.00,,,0.00,977.000000,,2013-07-24 21:22:00,
2013-07-24 15:52:00,93.0,20.0,-100.00,NW,310,4.0,15.0,7,0.00,,,0.00,984.000000,,2013-07-24 21:52:00,
2013-07-24 16:02:00,93.0,20.0,-100.00,NW,310,4.0,15.0,7,0.00,,,0.00,984.000000,,2013-07-24 22:02:00,
2013-07-24 16:12:00,93.0,20.0,-100.00,NW,310,4.0,15.0,7,0.00,,,0.00,984.000000,,2013-07-24 22:12:00,
2013-07-24 16:22:00,93.0,20.0,-100.00,NW,310,4.0,15.0,7,0.00,,,0.00,984.000000,,2013-07-24 22:22:00,
2013-07-24 16:53:00,94.0,17.0,-100.00,WNW,288,5.0,17.0,6,0.00,,,0.00,792.000000,,2013-07-24 22:53:00,
2013-07-24 17:02:00,94.0,17.0,-100.00,WNW,288,5.0,17.0,6,0.00,,,0.00,792.000000,,2013-07-24 23:02:00,
2013-07-24 17:12:00,94.0,17.0,-100.00,WNW,288,5.0,17.0,6,0.00,,,0.00,792.000000,,2013-07-24 23:12:00,
2013-07-24 17:22:00,94.0,17.0,-100.00,WNW,288,5.0,17.0,6,0.00,,,0.00,792.000000,,2013-07-24 23:22:00,
2013-07-24 17:52:00,95.0,18.0,-100.00,NNW,340,6.0,15.0,6,0.00,,,0.00,704.000000,,2013-07-24 23:52:00,
2013-07-24 18:02:00,95.0,18.0,-100.00,NNW,340,6.0,15.0,6,0.00,,,0.00,704.000000,,2013-07-25 00:02:00,
2013-07-24 18:12:00,95.0,18.0,-100.00,NNW,340,6.0,15.0,6,0.00,,,0.00,704.000000,,2013-07-25 00:12:00,
2013-07-24 18:22:00,95.0,18.0,-100.00,NNW,340,6.0,15.0,6,0.00,,,0.00,704.000000,,2013-07-25 00:22:00,
2013-07-24 18:53:00,93.0,20.0,-100.00,West,277,8.0,15.0,7,0.00,,,0.00,629.000000,,2013-07-25 00:53:00,
2013-07-24 19:02:00,93.0,20.0,-100.00,West,277,8.0,15.0,7,0.00,,,0.00,629.000000,,2013-07-25 01:02:00,
2013-07-24 19:12:00,93.0,20.0,-100.00,West,277,8.0,15.0,7,0.00,,,0.00,629.000000,,2013-07-25 01:12:00,
2013-07-24 19:22:00,93.0,20.0,-100.00,West,277,8.0,15.0,7,0.00,,,0.00,629.000000,,2013-07-25 01:22:00,
2013-07-24 19:53:00,92.0,16.0,-100.00,WNW,290,5.0,13.0,6,0.00,,,-99.99,443.000000,,2013-07-25 01:53:00,
2013-07-24 20:02:00,92.0,16.0,-100.00,WNW,290,5.0,13.0,6,0.00,,,-99.99,443.000000,,2013-07-25 02:02:00,
2013-07-24 20:12:00,92.0,16.0,-100.00,WNW,290,5.0,13.0,6,0.00,,,-99.99,443.000000,,2013-07-25 02:12:00,
2013-07-24 20:22:00,92.0,16.0,-100.00,WNW,290,5.0,13.0,6,0.00,,,-99.99,443.000000,,2013-07-25 02:22:00,
2013-07-24 20:53:00,89.0,17.0,-100.00,NW,311,3.0,13.0,7,0.00,,,0.00,266.000000,,2013-07-25 02:53:00,
2013-07-24 21:02:00,89.0,17.0,-100.00,NW,311,3.0,13.0,7,0.00,,,0.00,266.000000,,2013-07-25 03:02:00,
2013-07-24 21:13:00,89.0,17.0,-100.00,NW,311,3.0,13.0,7,0.00,,,0.00,266.000000,,2013-07-25 03:13:00,
2013-07-24 21:23:00,89.0,17.0,-100.00,NW,311,3.0,13.0,7,0.00,,,0.00,266.000000,,2013-07-25 03:23:00,
2013-07-24 21:52:00,79.0,18.0,-100.00,SE,124,1.0,11.0,10,0.00,,,0.00,88.000000,,2013-07-25 03:52:00,
2013-07-24 22:02:00,79.0,18.0,-100.00,SE,124,1.0,11.0,10,0.00,,,0.00,88.000000,,2013-07-25 04:02:00,
2013-07-24 22:12:00,79.0,18.0,-100.00,SE,124,1.0,11.0,10,0.00,,,0.00,88.000000,,2013-07-25 04:12:00,
2013-07-24 22:22:00,79.0,18.0,-100.00,SE,124,1.0,11.0,10,0.00,,,0.00,88.000000,,2013-07-25 04:22:00,
2013-07-24 22:53:00,70.0,17.0,-100.00,SE,141,1.0,7.0,13,0.00,,,0.00,2.000000,,2013-07-25 04:53:00,
2013-07-24 23:02:00,70.0,17.0,-100.00,SE,141,1.0,7.0,13,0.00,,,0.00,2.000000,,2013-07-25 05:02:00,
2013-07-24 23:12:00,70.0,17.0,-100.00,SE,141,1.0,7.0,13,0.00,,,0.00,2.000000,,2013-07-25 05:12:00,
2013-07-24 23:21:00,70.0,17.0,-100.00,SE,141,1.0,7.0,13,0.00,,,0.00,2.000000,,2013-07-25 05:21:00,
2013-07-24 23:52:00,67.0,19.0,-100.00,SE,142,1.0,7.0,16,0.00,,,0.00,0.000000,,2013-07-25 05:52:00,